sensor_id;sensor_type;location;lat;lon;timestamp;P1;durP1;ratioP1;P2;durP2;ratioP2
59468;SDS011;45277;52.768;18.262;2022-07-18T00:00:12;12.20;;;7.15;;
59468;SDS011;45277;52.768;18.262;2022-07-18T00:02:04;14.30;;;6.47;;
59468;SDS011;45277;52.768;18.262;2022-07-18T00:03:37;12.98;;;6.25;;
59468;SDS011;45277;52.768;18.262;2022-07-18T00:05:08;13.27;;;6.78;;
59468;SDS011;45277;52.768;18.262;2022-07-18T00:06:47;14.40;;;7.35;;
59468;SDS011;45277;52.768;18.262;2022-07-18T00:08:20;12.80;;;6.60;;
59468;SDS011;45277;52.768;18.262;2022-07-18T00:09:51;11.57;;;6.60;;
59468;SDS011;45277;52.768;18.262;2022-07-18T00:11:31;14.93;;;7.22;;
59468;SDS011;45277;52.768;18.262;2022-07-18T00:13:03;10.30;;;6.53;;
59468;SDS011;45277;52.768;18.262;2022-07-18T00:14:35;9.95;;;6.85;;
59468;SDS011;45277;52.768;18.262;2022-07-18T00:16:07;9.85;;;6.82;;
59468;SDS011;45277;52.768;18.262;2022-07-18T00:17:39;9.57;;;6.50;;
59468;SDS011;45277;52.768;18.262;2022-07-18T00:19:13;11.27;;;6.47;;
59468;SDS011;45277;52.768;18.262;2022-07-18T00:20:45;10.00;;;6.00;;
59468;SDS011;45277;52.768;18.262;2022-07-18T00:22:19;9.55;;;6.03;;
59468;SDS011;45277;52.768;18.262;2022-07-18T00:23:52;9.15;;;5.93;;
59468;SDS011;45277;52.768;18.262;2022-07-18T00:25:25;9.20;;;6.50;;
59468;SDS011;45277;52.768;18.262;2022-07-18T00:26:56;9.60;;;5.88;;
59468;SDS011;45277;52.768;18.262;2022-07-18T00:28:29;10.60;;;5.90;;
59468;SDS011;45277;52.768;18.262;2022-07-18T00:30:03;12.38;;;6.28;;
59468;SDS011;45277;52.768;18.262;2022-07-18T00:31:37;9.73;;;6.38;;
59468;SDS011;45277;52.768;18.262;2022-07-18T00:33:08;8.30;;;5.95;;
59468;SDS011;45277;52.768;18.262;2022-07-18T00:34:40;9.73;;;5.65;;
59468;SDS011;45277;52.768;18.262;2022-07-18T00:36:12;9.15;;;6.45;;
59468;SDS011;45277;52.768;18.262;2022-07-18T00:37:43;8.88;;;5.95;;
59468;SDS011;45277;52.768;18.262;2022-07-18T00:39:15;12.30;;;6.90;;
59468;SDS011;45277;52.768;18.262;2022-07-18T00:40:47;10.88;;;7.10;;
59468;SDS011;45277;52.768;18.262;2022-07-18T00:42:19;9.65;;;6.32;;
59468;SDS011;45277;52.768;18.262;2022-07-18T00:43:52;8.70;;;6.18;;
59468;SDS011;45277;52.768;18.262;2022-07-18T00:45:25;10.10;;;6.43;;
59468;SDS011;45277;52.768;18.262;2022-07-18T00:47:10;10.35;;;6.05;;
59468;SDS011;45277;52.768;18.262;2022-07-18T00:48:42;11.20;;;6.15;;
59468;SDS011;45277;52.768;18.262;2022-07-18T00:50:15;10.10;;;5.80;;
59468;SDS011;45277;52.768;18.262;2022-07-18T00:51:47;11.93;;;6.40;;
59468;SDS011;45277;52.768;18.262;2022-07-18T00:53:24;10.45;;;5.80;;
59468;SDS011;45277;52.768;18.262;2022-07-18T00:54:56;10.50;;;6.10;;
59468;SDS011;45277;52.768;18.262;2022-07-18T00:56:34;7.15;;;5.32;;
59468;SDS011;45277;52.768;18.262;2022-07-18T00:58:07;12.98;;;5.68;;
59468;SDS011;45277;52.768;18.262;2022-07-18T00:59:41;9.93;;;5.90;;
59468;SDS011;45277;52.768;18.262;2022-07-18T01:01:33;7.18;;;5.30;;
59468;SDS011;45277;52.768;18.262;2022-07-18T01:03:15;9.85;;;5.88;;
59468;SDS011;45277;52.768;18.262;2022-07-18T01:04:47;8.68;;;5.72;;
59468;SDS011;45277;52.768;18.262;2022-07-18T01:06:18;8.55;;;5.57;;
59468;SDS011;45277;52.768;18.262;2022-07-18T01:07:51;9.57;;;5.75;;
59468;SDS011;45277;52.768;18.262;2022-07-18T01:09:22;10.38;;;5.40;;
59468;SDS011;45277;52.768;18.262;2022-07-18T01:10:54;8.27;;;5.22;;
59468;SDS011;45277;52.768;18.262;2022-07-18T01:12:26;9.70;;;5.80;;
59468;SDS011;45277;52.768;18.262;2022-07-18T01:14:00;9.75;;;5.25;;
59468;SDS011;45277;52.768;18.262;2022-07-18T01:17:17;10.10;;;5.07;;
59468;SDS011;45277;52.768;18.262;2022-07-18T01:18:49;9.90;;;5.45;;
59468;SDS011;45277;52.768;18.262;2022-07-18T01:20:26;8.93;;;5.95;;
59468;SDS011;45277;52.768;18.262;2022-07-18T01:21:58;10.05;;;5.05;;
59468;SDS011;45277;52.768;18.262;2022-07-18T01:23:38;8.57;;;4.55;;
59468;SDS011;45277;52.768;18.262;2022-07-18T01:25:10;8.90;;;5.40;;
59468;SDS011;45277;52.768;18.262;2022-07-18T01:26:43;9.02;;;4.60;;
59468;SDS011;45277;52.768;18.262;2022-07-18T01:28:16;7.72;;;4.80;;
59468;SDS011;45277;52.768;18.262;2022-07-18T01:29:48;10.10;;;4.97;;
59468;SDS011;45277;52.768;18.262;2022-07-18T01:31:21;12.35;;;4.88;;
59468;SDS011;45277;52.768;18.262;2022-07-18T01:32:59;8.85;;;4.60;;
59468;SDS011;45277;52.768;18.262;2022-07-18T01:34:33;6.55;;;4.40;;
59468;SDS011;45277;52.768;18.262;2022-07-18T01:36:06;7.15;;;4.53;;
59468;SDS011;45277;52.768;18.262;2022-07-18T01:37:38;7.47;;;4.68;;
59468;SDS011;45277;52.768;18.262;2022-07-18T01:39:17;8.23;;;4.80;;
59468;SDS011;45277;52.768;18.262;2022-07-18T01:40:55;11.57;;;5.25;;
59468;SDS011;45277;52.768;18.262;2022-07-18T01:42:26;6.20;;;4.50;;
59468;SDS011;45277;52.768;18.262;2022-07-18T01:44:06;6.75;;;4.60;;
59468;SDS011;45277;52.768;18.262;2022-07-18T01:45:38;8.02;;;4.75;;
59468;SDS011;45277;52.768;18.262;2022-07-18T01:47:10;7.32;;;4.72;;
59468;SDS011;45277;52.768;18.262;2022-07-18T01:48:49;8.68;;;5.22;;
59468;SDS011;45277;52.768;18.262;2022-07-18T01:50:21;8.65;;;4.85;;
59468;SDS011;45277;52.768;18.262;2022-07-18T01:51:53;9.43;;;5.03;;
59468;SDS011;45277;52.768;18.262;2022-07-18T01:53:30;8.15;;;4.85;;
59468;SDS011;45277;52.768;18.262;2022-07-18T01:55:04;9.35;;;5.47;;
59468;SDS011;45277;52.768;18.262;2022-07-18T01:56:37;7.10;;;4.78;;
59468;SDS011;45277;52.768;18.262;2022-07-18T01:58:10;8.32;;;5.22;;
59468;SDS011;45277;52.768;18.262;2022-07-18T01:59:41;7.20;;;4.60;;
59468;SDS011;45277;52.768;18.262;2022-07-18T02:01:12;9.65;;;4.57;;
59468;SDS011;45277;52.768;18.262;2022-07-18T02:02:45;9.73;;;5.70;;
59468;SDS011;45277;52.768;18.262;2022-07-18T02:04:17;11.00;;;5.50;;
59468;SDS011;45277;52.768;18.262;2022-07-18T02:05:51;7.93;;;5.40;;
59468;SDS011;45277;52.768;18.262;2022-07-18T02:07:25;7.28;;;4.65;;
59468;SDS011;45277;52.768;18.262;2022-07-18T02:09:02;9.10;;;5.88;;
59468;SDS011;45277;52.768;18.262;2022-07-18T02:10:37;12.57;;;5.90;;
59468;SDS011;45277;52.768;18.262;2022-07-18T02:12:09;7.75;;;5.45;;
59468;SDS011;45277;52.768;18.262;2022-07-18T02:13:41;7.75;;;5.03;;
59468;SDS011;45277;52.768;18.262;2022-07-18T02:15:13;8.00;;;4.90;;
59468;SDS011;45277;52.768;18.262;2022-07-18T02:16:52;6.57;;;4.47;;
59468;SDS011;45277;52.768;18.262;2022-07-18T02:18:24;8.02;;;4.63;;
59468;SDS011;45277;52.768;18.262;2022-07-18T02:19:57;8.23;;;4.43;;
59468;SDS011;45277;52.768;18.262;2022-07-18T02:21:29;6.65;;;4.50;;
59468;SDS011;45277;52.768;18.262;2022-07-18T02:23:00;10.85;;;4.50;;
59468;SDS011;45277;52.768;18.262;2022-07-18T02:24:32;6.43;;;4.38;;
59468;SDS011;45277;52.768;18.262;2022-07-18T02:26:04;8.10;;;4.97;;
59468;SDS011;45277;52.768;18.262;2022-07-18T02:27:35;6.45;;;4.05;;
59468;SDS011;45277;52.768;18.262;2022-07-18T02:29:07;4.78;;;4.30;;
59468;SDS011;45277;52.768;18.262;2022-07-18T02:30:39;9.07;;;4.90;;
59468;SDS011;45277;52.768;18.262;2022-07-18T02:32:12;7.35;;;4.30;;
59468;SDS011;45277;52.768;18.262;2022-07-18T02:33:45;7.35;;;4.55;;
59468;SDS011;45277;52.768;18.262;2022-07-18T02:35:17;9.95;;;4.70;;
59468;SDS011;45277;52.768;18.262;2022-07-18T02:36:48;8.25;;;4.60;;
59468;SDS011;45277;52.768;18.262;2022-07-18T02:38:23;7.35;;;4.78;;
59468;SDS011;45277;52.768;18.262;2022-07-18T02:39:54;7.38;;;4.70;;
59468;SDS011;45277;52.768;18.262;2022-07-18T02:41:26;7.43;;;4.97;;
59468;SDS011;45277;52.768;18.262;2022-07-18T02:42:58;7.15;;;4.50;;
59468;SDS011;45277;52.768;18.262;2022-07-18T02:44:31;12.25;;;4.68;;
59468;SDS011;45277;52.768;18.262;2022-07-18T02:46:02;6.53;;;4.40;;
59468;SDS011;45277;52.768;18.262;2022-07-18T02:47:35;8.32;;;4.22;;
59468;SDS011;45277;52.768;18.262;2022-07-18T02:49:09;7.93;;;4.40;;
59468;SDS011;45277;52.768;18.262;2022-07-18T02:50:40;7.60;;;4.60;;
59468;SDS011;45277;52.768;18.262;2022-07-18T02:52:18;9.50;;;5.35;;
59468;SDS011;45277;52.768;18.262;2022-07-18T02:53:52;6.03;;;4.35;;
59468;SDS011;45277;52.768;18.262;2022-07-18T02:55:25;11.15;;;4.60;;
59468;SDS011;45277;52.768;18.262;2022-07-18T02:56:57;7.30;;;4.55;;
59468;SDS011;45277;52.768;18.262;2022-07-18T02:58:35;7.35;;;4.30;;
59468;SDS011;45277;52.768;18.262;2022-07-18T03:00:12;10.82;;;4.55;;
59468;SDS011;45277;52.768;18.262;2022-07-18T03:01:45;7.40;;;4.45;;
59468;SDS011;45277;52.768;18.262;2022-07-18T03:03:16;9.38;;;4.60;;
59468;SDS011;45277;52.768;18.262;2022-07-18T03:04:49;9.43;;;4.80;;
59468;SDS011;45277;52.768;18.262;2022-07-18T03:06:33;9.50;;;4.45;;
59468;SDS011;45277;52.768;18.262;2022-07-18T03:08:05;10.60;;;4.47;;
59468;SDS011;45277;52.768;18.262;2022-07-18T03:09:36;6.82;;;4.20;;
59468;SDS011;45277;52.768;18.262;2022-07-18T03:11:07;14.20;;;4.55;;
59468;SDS011;45277;52.768;18.262;2022-07-18T03:12:40;16.40;;;4.80;;
59468;SDS011;45277;52.768;18.262;2022-07-18T03:14:13;11.18;;;4.57;;
59468;SDS011;45277;52.768;18.262;2022-07-18T03:15:46;12.10;;;4.55;;
59468;SDS011;45277;52.768;18.262;2022-07-18T03:17:17;13.18;;;4.57;;
59468;SDS011;45277;52.768;18.262;2022-07-18T03:18:50;15.65;;;4.78;;
59468;SDS011;45277;52.768;18.262;2022-07-18T03:20:22;9.27;;;4.30;;
59468;SDS011;45277;52.768;18.262;2022-07-18T03:21:54;13.23;;;4.68;;
59468;SDS011;45277;52.768;18.262;2022-07-18T03:23:26;9.75;;;4.40;;
59468;SDS011;45277;52.768;18.262;2022-07-18T03:24:59;8.10;;;4.88;;
59468;SDS011;45277;52.768;18.262;2022-07-18T03:26:30;9.00;;;4.50;;
59468;SDS011;45277;52.768;18.262;2022-07-18T03:28:02;11.68;;;4.78;;
59468;SDS011;45277;52.768;18.262;2022-07-18T03:29:40;11.10;;;4.85;;
59468;SDS011;45277;52.768;18.262;2022-07-18T03:31:12;7.95;;;4.43;;
59468;SDS011;45277;52.768;18.262;2022-07-18T03:32:44;8.43;;;4.88;;
59468;SDS011;45277;52.768;18.262;2022-07-18T03:34:17;9.50;;;4.88;;
59468;SDS011;45277;52.768;18.262;2022-07-18T03:35:50;7.30;;;4.47;;
59468;SDS011;45277;52.768;18.262;2022-07-18T03:37:23;7.70;;;4.50;;
59468;SDS011;45277;52.768;18.262;2022-07-18T03:39:07;8.25;;;4.35;;
59468;SDS011;45277;52.768;18.262;2022-07-18T03:40:39;9.77;;;4.93;;
59468;SDS011;45277;52.768;18.262;2022-07-18T03:42:11;9.02;;;4.60;;
59468;SDS011;45277;52.768;18.262;2022-07-18T03:43:43;7.75;;;4.88;;
59468;SDS011;45277;52.768;18.262;2022-07-18T03:45:16;10.45;;;5.03;;
59468;SDS011;45277;52.768;18.262;2022-07-18T03:46:48;7.00;;;4.43;;
59468;SDS011;45277;52.768;18.262;2022-07-18T03:48:26;7.88;;;4.28;;
59468;SDS011;45277;52.768;18.262;2022-07-18T03:49:59;16.02;;;4.63;;
59468;SDS011;45277;52.768;18.262;2022-07-18T03:51:31;10.98;;;4.57;;
59468;SDS011;45277;52.768;18.262;2022-07-18T03:53:03;6.47;;;4.70;;
59468;SDS011;45277;52.768;18.262;2022-07-18T03:54:35;5.50;;;4.22;;
59468;SDS011;45277;52.768;18.262;2022-07-18T03:56:07;8.35;;;4.75;;
59468;SDS011;45277;52.768;18.262;2022-07-18T03:57:38;10.13;;;4.95;;
59468;SDS011;45277;52.768;18.262;2022-07-18T03:59:11;6.93;;;4.50;;
59468;SDS011;45277;52.768;18.262;2022-07-18T04:00:44;10.65;;;4.65;;
59468;SDS011;45277;52.768;18.262;2022-07-18T04:02:16;7.32;;;4.53;;
59468;SDS011;45277;52.768;18.262;2022-07-18T04:03:47;9.10;;;4.60;;
59468;SDS011;45277;52.768;18.262;2022-07-18T04:05:19;9.23;;;4.65;;
59468;SDS011;45277;52.768;18.262;2022-07-18T04:06:50;5.70;;;3.88;;
59468;SDS011;45277;52.768;18.262;2022-07-18T04:08:22;11.10;;;4.25;;
59468;SDS011;45277;52.768;18.262;2022-07-18T04:09:55;8.63;;;4.25;;
59468;SDS011;45277;52.768;18.262;2022-07-18T04:11:32;10.60;;;4.43;;
59468;SDS011;45277;52.768;18.262;2022-07-18T04:13:05;11.43;;;4.50;;
59468;SDS011;45277;52.768;18.262;2022-07-18T04:14:44;9.15;;;4.10;;
59468;SDS011;45277;52.768;18.262;2022-07-18T04:16:17;7.47;;;4.20;;
59468;SDS011;45277;52.768;18.262;2022-07-18T04:17:56;7.32;;;4.30;;
59468;SDS011;45277;52.768;18.262;2022-07-18T04:19:27;9.70;;;4.30;;
59468;SDS011;45277;52.768;18.262;2022-07-18T04:21:00;6.35;;;4.03;;
59468;SDS011;45277;52.768;18.262;2022-07-18T04:22:44;11.18;;;4.50;;
59468;SDS011;45277;52.768;18.262;2022-07-18T04:24:15;8.75;;;4.25;;
59468;SDS011;45277;52.768;18.262;2022-07-18T04:25:47;13.05;;;4.70;;
59468;SDS011;45277;52.768;18.262;2022-07-18T04:27:19;10.02;;;3.90;;
59468;SDS011;45277;52.768;18.262;2022-07-18T04:29:04;9.15;;;4.50;;
59468;SDS011;45277;52.768;18.262;2022-07-18T04:30:37;8.20;;;3.90;;
59468;SDS011;45277;52.768;18.262;2022-07-18T04:32:16;6.40;;;4.20;;
59468;SDS011;45277;52.768;18.262;2022-07-18T04:33:50;7.53;;;4.03;;
59468;SDS011;45277;52.768;18.262;2022-07-18T04:35:22;8.85;;;4.30;;
59468;SDS011;45277;52.768;18.262;2022-07-18T04:36:54;9.93;;;3.67;;
59468;SDS011;45277;52.768;18.262;2022-07-18T04:38:26;6.75;;;3.90;;
59468;SDS011;45277;52.768;18.262;2022-07-18T04:40:03;5.95;;;3.95;;
59468;SDS011;45277;52.768;18.262;2022-07-18T04:41:36;7.72;;;4.05;;
59468;SDS011;45277;52.768;18.262;2022-07-18T04:43:07;8.60;;;4.10;;
59468;SDS011;45277;52.768;18.262;2022-07-18T04:44:39;9.52;;;4.25;;
59468;SDS011;45277;52.768;18.262;2022-07-18T04:46:12;7.72;;;4.35;;
59468;SDS011;45277;52.768;18.262;2022-07-18T04:47:43;5.47;;;4.25;;
59468;SDS011;45277;52.768;18.262;2022-07-18T04:49:15;8.18;;;4.70;;
59468;SDS011;45277;52.768;18.262;2022-07-18T04:50:49;10.30;;;4.57;;
59468;SDS011;45277;52.768;18.262;2022-07-18T04:52:22;6.40;;;4.10;;
59468;SDS011;45277;52.768;18.262;2022-07-18T04:53:54;8.70;;;4.00;;
59468;SDS011;45277;52.768;18.262;2022-07-18T04:55:26;7.15;;;4.43;;
59468;SDS011;45277;52.768;18.262;2022-07-18T04:56:59;9.95;;;4.88;;
59468;SDS011;45277;52.768;18.262;2022-07-18T04:58:31;9.25;;;4.35;;
59468;SDS011;45277;52.768;18.262;2022-07-18T05:00:07;10.20;;;4.90;;
59468;SDS011;45277;52.768;18.262;2022-07-18T05:01:43;8.07;;;4.65;;
59468;SDS011;45277;52.768;18.262;2022-07-18T05:03:15;10.52;;;5.10;;
59468;SDS011;45277;52.768;18.262;2022-07-18T05:04:47;10.80;;;5.38;;
59468;SDS011;45277;52.768;18.262;2022-07-18T05:06:19;11.45;;;4.68;;
59468;SDS011;45277;52.768;18.262;2022-07-18T05:09:26;8.50;;;4.22;;
59468;SDS011;45277;52.768;18.262;2022-07-18T05:10:59;7.30;;;5.03;;
59468;SDS011;45277;52.768;18.262;2022-07-18T05:12:33;11.80;;;4.90;;
59468;SDS011;45277;52.768;18.262;2022-07-18T05:14:07;6.85;;;4.40;;
59468;SDS011;45277;52.768;18.262;2022-07-18T05:15:39;13.38;;;4.60;;
59468;SDS011;45277;52.768;18.262;2022-07-18T05:17:11;8.85;;;4.32;;
59468;SDS011;45277;52.768;18.262;2022-07-18T05:18:42;7.30;;;4.60;;
59468;SDS011;45277;52.768;18.262;2022-07-18T05:20:15;6.50;;;4.30;;
59468;SDS011;45277;52.768;18.262;2022-07-18T05:21:49;7.60;;;4.32;;
59468;SDS011;45277;52.768;18.262;2022-07-18T05:23:27;8.45;;;4.00;;
59468;SDS011;45277;52.768;18.262;2022-07-18T05:24:59;8.68;;;4.25;;
59468;SDS011;45277;52.768;18.262;2022-07-18T05:26:31;6.35;;;4.00;;
59468;SDS011;45277;52.768;18.262;2022-07-18T05:28:03;8.38;;;4.20;;
59468;SDS011;45277;52.768;18.262;2022-07-18T05:29:37;12.65;;;3.83;;
59468;SDS011;45277;52.768;18.262;2022-07-18T05:31:08;4.03;;;3.58;;
59468;SDS011;45277;52.768;18.262;2022-07-18T05:32:42;6.57;;;3.50;;
59468;SDS011;45277;52.768;18.262;2022-07-18T05:34:14;4.97;;;3.22;;
59468;SDS011;45277;52.768;18.262;2022-07-18T05:35:47;7.57;;;3.90;;
59468;SDS011;45277;52.768;18.262;2022-07-18T05:37:19;7.88;;;3.50;;
59468;SDS011;45277;52.768;18.262;2022-07-18T05:38:51;7.60;;;3.97;;
59468;SDS011;45277;52.768;18.262;2022-07-18T05:40:22;11.93;;;4.03;;
59468;SDS011;45277;52.768;18.262;2022-07-18T05:41:55;7.90;;;3.78;;
59468;SDS011;45277;52.768;18.262;2022-07-18T05:43:27;8.50;;;3.47;;
59468;SDS011;45277;52.768;18.262;2022-07-18T05:45:05;6.65;;;4.00;;
59468;SDS011;45277;52.768;18.262;2022-07-18T05:46:46;8.70;;;4.30;;
59468;SDS011;45277;52.768;18.262;2022-07-18T05:48:18;7.57;;;3.75;;
59468;SDS011;45277;52.768;18.262;2022-07-18T05:49:50;9.20;;;3.80;;
59468;SDS011;45277;52.768;18.262;2022-07-18T05:51:21;7.63;;;3.75;;
59468;SDS011;45277;52.768;18.262;2022-07-18T05:52:53;11.65;;;3.97;;
59468;SDS011;45277;52.768;18.262;2022-07-18T05:54:25;7.63;;;4.15;;
59468;SDS011;45277;52.768;18.262;2022-07-18T05:55:57;9.25;;;4.30;;
59468;SDS011;45277;52.768;18.262;2022-07-18T05:57:28;7.72;;;4.05;;
59468;SDS011;45277;52.768;18.262;2022-07-18T05:59:00;8.80;;;4.13;;
59468;SDS011;45277;52.768;18.262;2022-07-18T06:00:34;11.55;;;4.30;;
59468;SDS011;45277;52.768;18.262;2022-07-18T06:02:06;9.70;;;4.00;;
59468;SDS011;45277;52.768;18.262;2022-07-18T06:03:38;6.53;;;4.03;;
59468;SDS011;45277;52.768;18.262;2022-07-18T06:05:12;9.38;;;4.00;;
59468;SDS011;45277;52.768;18.262;2022-07-18T06:06:44;7.80;;;3.95;;
59468;SDS011;45277;52.768;18.262;2022-07-18T06:08:18;10.55;;;5.38;;
59468;SDS011;45277;52.768;18.262;2022-07-18T06:09:49;8.68;;;3.92;;
59468;SDS011;45277;52.768;18.262;2022-07-18T06:11:21;8.73;;;3.70;;
59468;SDS011;45277;52.768;18.262;2022-07-18T06:12:54;7.43;;;4.60;;
59468;SDS011;45277;52.768;18.262;2022-07-18T06:14:27;9.20;;;5.10;;
59468;SDS011;45277;52.768;18.262;2022-07-18T06:16:00;12.10;;;4.88;;
59468;SDS011;45277;52.768;18.262;2022-07-18T06:17:32;6.82;;;3.53;;
59468;SDS011;45277;52.768;18.262;2022-07-18T06:19:04;13.35;;;4.05;;
59468;SDS011;45277;52.768;18.262;2022-07-18T06:20:35;9.70;;;6.72;;
59468;SDS011;45277;52.768;18.262;2022-07-18T06:22:07;11.32;;;5.90;;
59468;SDS011;45277;52.768;18.262;2022-07-18T06:23:39;9.15;;;5.00;;
59468;SDS011;45277;52.768;18.262;2022-07-18T06:25:11;7.95;;;4.40;;
59468;SDS011;45277;52.768;18.262;2022-07-18T06:26:44;8.65;;;5.13;;
59468;SDS011;45277;52.768;18.262;2022-07-18T06:28:16;4.78;;;3.00;;
59468;SDS011;45277;52.768;18.262;2022-07-18T06:29:47;4.25;;;2.92;;
59468;SDS011;45277;52.768;18.262;2022-07-18T06:31:20;8.38;;;3.97;;
59468;SDS011;45277;52.768;18.262;2022-07-18T06:32:51;4.10;;;2.83;;
59468;SDS011;45277;52.768;18.262;2022-07-18T06:34:29;7.60;;;6.22;;
59468;SDS011;45277;52.768;18.262;2022-07-18T06:36:01;5.05;;;3.60;;
59468;SDS011;45277;52.768;18.262;2022-07-18T06:37:34;9.10;;;4.18;;
59468;SDS011;45277;52.768;18.262;2022-07-18T06:39:07;5.88;;;3.33;;
59468;SDS011;45277;52.768;18.262;2022-07-18T06:40:42;5.88;;;3.05;;
59468;SDS011;45277;52.768;18.262;2022-07-18T06:42:16;4.18;;;2.60;;
59468;SDS011;45277;52.768;18.262;2022-07-18T06:43:48;6.10;;;2.88;;
59468;SDS011;45277;52.768;18.262;2022-07-18T06:45:22;6.95;;;2.88;;
59468;SDS011;45277;52.768;18.262;2022-07-18T06:46:55;6.20;;;3.00;;
59468;SDS011;45277;52.768;18.262;2022-07-18T06:48:29;5.22;;;3.60;;
59468;SDS011;45277;52.768;18.262;2022-07-18T06:50:05;4.80;;;2.92;;
59468;SDS011;45277;52.768;18.262;2022-07-18T06:51:38;5.28;;;3.28;;
59468;SDS011;45277;52.768;18.262;2022-07-18T06:53:12;6.30;;;2.63;;
59468;SDS011;45277;52.768;18.262;2022-07-18T06:54:43;6.03;;;2.65;;
59468;SDS011;45277;52.768;18.262;2022-07-18T06:56:16;9.40;;;2.95;;
59468;SDS011;45277;52.768;18.262;2022-07-18T06:57:53;8.35;;;3.20;;
59468;SDS011;45277;52.768;18.262;2022-07-18T06:59:25;9.02;;;2.97;;
59468;SDS011;45277;52.768;18.262;2022-07-18T07:00:57;8.25;;;2.90;;
59468;SDS011;45277;52.768;18.262;2022-07-18T07:02:29;7.32;;;3.10;;
59468;SDS011;45277;52.768;18.262;2022-07-18T07:04:01;4.30;;;2.78;;
59468;SDS011;45277;52.768;18.262;2022-07-18T07:05:32;7.18;;;2.85;;
59468;SDS011;45277;52.768;18.262;2022-07-18T07:07:04;5.50;;;2.50;;
59468;SDS011;45277;52.768;18.262;2022-07-18T07:08:36;4.82;;;2.70;;
59468;SDS011;45277;52.768;18.262;2022-07-18T07:10:08;7.93;;;2.90;;
59468;SDS011;45277;52.768;18.262;2022-07-18T07:11:41;12.60;;;8.68;;
59468;SDS011;45277;52.768;18.262;2022-07-18T07:13:14;8.90;;;5.30;;
59468;SDS011;45277;52.768;18.262;2022-07-18T07:14:46;5.65;;;3.47;;
59468;SDS011;45277;52.768;18.262;2022-07-18T07:16:24;7.57;;;4.10;;
59468;SDS011;45277;52.768;18.262;2022-07-18T07:17:56;5.53;;;4.38;;
59468;SDS011;45277;52.768;18.262;2022-07-18T07:19:35;7.68;;;4.70;;
59468;SDS011;45277;52.768;18.262;2022-07-18T07:21:08;5.78;;;4.20;;
59468;SDS011;45277;52.768;18.262;2022-07-18T07:22:43;11.23;;;5.82;;
59468;SDS011;45277;52.768;18.262;2022-07-18T07:24:15;7.45;;;4.70;;
59468;SDS011;45277;52.768;18.262;2022-07-18T07:25:48;4.78;;;2.78;;
59468;SDS011;45277;52.768;18.262;2022-07-18T07:27:27;11.45;;;3.47;;
59468;SDS011;45277;52.768;18.262;2022-07-18T07:29:03;6.30;;;3.60;;
59468;SDS011;45277;52.768;18.262;2022-07-18T07:30:35;10.60;;;8.43;;
59468;SDS011;45277;52.768;18.262;2022-07-18T07:32:09;6.43;;;4.05;;
59468;SDS011;45277;52.768;18.262;2022-07-18T07:33:42;7.78;;;4.95;;
59468;SDS011;45277;52.768;18.262;2022-07-18T07:35:16;7.65;;;5.30;;
59468;SDS011;45277;52.768;18.262;2022-07-18T07:36:49;8.43;;;4.28;;
59468;SDS011;45277;52.768;18.262;2022-07-18T07:38:20;8.77;;;4.28;;
59468;SDS011;45277;52.768;18.262;2022-07-18T07:39:58;17.05;;;9.48;;
59468;SDS011;45277;52.768;18.262;2022-07-18T07:41:30;13.73;;;8.88;;
59468;SDS011;45277;52.768;18.262;2022-07-18T07:43:06;13.02;;;9.20;;
59468;SDS011;45277;52.768;18.262;2022-07-18T07:44:43;9.98;;;5.95;;
59468;SDS011;45277;52.768;18.262;2022-07-18T07:46:15;11.48;;;5.35;;
59468;SDS011;45277;52.768;18.262;2022-07-18T07:47:49;16.60;;;11.68;;
59468;SDS011;45277;52.768;18.262;2022-07-18T07:49:23;11.88;;;6.13;;
59468;SDS011;45277;52.768;18.262;2022-07-18T07:50:55;8.43;;;3.90;;
59468;SDS011;45277;52.768;18.262;2022-07-18T07:52:28;5.93;;;2.83;;
59468;SDS011;45277;52.768;18.262;2022-07-18T07:54:06;5.82;;;3.25;;
59468;SDS011;45277;52.768;18.262;2022-07-18T07:55:39;6.53;;;2.70;;
59468;SDS011;45277;52.768;18.262;2022-07-18T07:57:11;6.97;;;2.70;;
59468;SDS011;45277;52.768;18.262;2022-07-18T07:58:47;4.47;;;2.65;;
59468;SDS011;45277;52.768;18.262;2022-07-18T08:00:19;6.93;;;2.70;;
59468;SDS011;45277;52.768;18.262;2022-07-18T08:01:52;15.45;;;8.35;;
59468;SDS011;45277;52.768;18.262;2022-07-18T08:03:25;8.45;;;3.60;;
59468;SDS011;45277;52.768;18.262;2022-07-18T08:04:57;5.82;;;2.55;;
59468;SDS011;45277;52.768;18.262;2022-07-18T08:06:30;3.58;;;2.30;;
59468;SDS011;45277;52.768;18.262;2022-07-18T08:08:02;6.00;;;2.83;;
59468;SDS011;45277;52.768;18.262;2022-07-18T08:09:36;3.53;;;2.60;;
59468;SDS011;45277;52.768;18.262;2022-07-18T08:11:08;6.35;;;3.67;;
59468;SDS011;45277;52.768;18.262;2022-07-18T08:12:40;9.32;;;3.65;;
59468;SDS011;45277;52.768;18.262;2022-07-18T08:14:11;6.28;;;2.60;;
59468;SDS011;45277;52.768;18.262;2022-07-18T08:15:43;5.10;;;2.83;;
59468;SDS011;45277;52.768;18.262;2022-07-18T08:17:15;4.00;;;2.65;;
59468;SDS011;45277;52.768;18.262;2022-07-18T08:18:47;8.60;;;4.30;;
59468;SDS011;45277;52.768;18.262;2022-07-18T08:20:27;6.30;;;3.35;;
59468;SDS011;45277;52.768;18.262;2022-07-18T08:21:59;5.15;;;2.47;;
59468;SDS011;45277;52.768;18.262;2022-07-18T08:23:31;4.80;;;2.60;;
59468;SDS011;45277;52.768;18.262;2022-07-18T08:25:03;7.03;;;2.90;;
59468;SDS011;45277;52.768;18.262;2022-07-18T08:26:35;6.75;;;3.42;;
59468;SDS011;45277;52.768;18.262;2022-07-18T08:28:09;10.43;;;5.50;;
59468;SDS011;45277;52.768;18.262;2022-07-18T08:29:43;7.20;;;3.00;;
59468;SDS011;45277;52.768;18.262;2022-07-18T08:32:50;7.18;;;4.10;;
59468;SDS011;45277;52.768;18.262;2022-07-18T08:34:21;5.05;;;4.47;;
59468;SDS011;45277;52.768;18.262;2022-07-18T08:36:00;4.85;;;2.80;;
59468;SDS011;45277;52.768;18.262;2022-07-18T08:37:31;5.78;;;3.13;;
59468;SDS011;45277;52.768;18.262;2022-07-18T08:39:05;7.60;;;3.67;;
59468;SDS011;45277;52.768;18.262;2022-07-18T08:40:37;5.55;;;3.60;;
59468;SDS011;45277;52.768;18.262;2022-07-18T08:42:10;7.85;;;3.10;;
59468;SDS011;45277;52.768;18.262;2022-07-18T08:43:44;6.03;;;3.70;;
59468;SDS011;45277;52.768;18.262;2022-07-18T08:45:23;7.35;;;3.90;;
59468;SDS011;45277;52.768;18.262;2022-07-18T08:46:56;8.63;;;3.38;;
59468;SDS011;45277;52.768;18.262;2022-07-18T08:48:34;6.38;;;3.97;;
59468;SDS011;45277;52.768;18.262;2022-07-18T08:50:09;9.50;;;3.60;;
59468;SDS011;45277;52.768;18.262;2022-07-18T08:51:42;8.32;;;3.10;;
59468;SDS011;45277;52.768;18.262;2022-07-18T08:53:17;8.40;;;4.43;;
59468;SDS011;45277;52.768;18.262;2022-07-18T08:54:50;9.60;;;3.65;;
59468;SDS011;45277;52.768;18.262;2022-07-18T08:56:24;7.18;;;3.58;;
59468;SDS011;45277;52.768;18.262;2022-07-18T08:57:56;9.00;;;5.75;;
59468;SDS011;45277;52.768;18.262;2022-07-18T08:59:29;5.78;;;3.58;;
59468;SDS011;45277;52.768;18.262;2022-07-18T09:01:02;7.88;;;3.53;;
59468;SDS011;45277;52.768;18.262;2022-07-18T09:02:35;8.00;;;4.57;;
59468;SDS011;45277;52.768;18.262;2022-07-18T09:04:07;10.32;;;5.43;;
59468;SDS011;45277;52.768;18.262;2022-07-18T09:06:11;6.30;;;3.25;;
59468;SDS011;45277;52.768;18.262;2022-07-18T09:07:42;8.07;;;3.05;;
59468;SDS011;45277;52.768;18.262;2022-07-18T09:09:21;6.00;;;2.88;;
59468;SDS011;45277;52.768;18.262;2022-07-18T09:10:54;6.60;;;3.35;;
59468;SDS011;45277;52.768;18.262;2022-07-18T09:12:33;20.92;;;3.00;;
59468;SDS011;45277;52.768;18.262;2022-07-18T09:14:08;5.70;;;2.88;;
59468;SDS011;45277;52.768;18.262;2022-07-18T09:16:00;5.97;;;3.30;;
59468;SDS011;45277;52.768;18.262;2022-07-18T09:17:39;15.38;;;2.95;;